sensor_id;sensor_type;location;lat;lon;timestamp;temperature;humidity
5848;DHT22;8756;49.29324300;8.70599800;2022-10-26T00:01:08;12.80;99.90
5848;DHT22;8756;49.29324300;8.70599800;2022-10-26T00:03:36;12.80;99.90
5848;DHT22;8756;49.29324300;8.70599800;2022-10-26T00:08:34;12.80;99.90
5848;DHT22;8756;49.29324300;8.70599800;2022-10-26T00:11:00;12.80;99.90
5848;DHT22;8756;49.29324300;8.70599800;2022-10-26T00:13:29;12.90;99.90
5848;DHT22;8756;49.29324300;8.70599800;2022-10-26T00:15:55;12.90;99.90
5848;DHT22;8756;49.29324300;8.70599800;2022-10-26T00:18:22;12.90;99.90
5848;DHT22;8756;49.29324300;8.70599800;2022-10-26T00:20:48;12.90;99.90
5848;DHT22;8756;49.29324300;8.70599800;2022-10-26T00:23:14;13.00;99.90
5848;DHT22;8756;49.29324300;8.70599800;2022-10-26T00:25:39;12.90;99.90
5848;DHT22;8756;49.29324300;8.70599800;2022-10-26T00:28:05;12.90;99.90
5848;DHT22;8756;49.29324300;8.70599800;2022-10-26T00:30:31;12.90;99.90
5848;DHT22;8756;49.29324300;8.70599800;2022-10-26T00:32:57;12.90;99.90
5848;DHT22;8756;49.29324300;8.70599800;2022-10-26T00:35:22;12.90;99.90
5848;DHT22;8756;49.29324300;8.70599800;2022-10-26T00:37:52;12.90;99.90
5848;DHT22;8756;49.29324300;8.70599800;2022-10-26T00:40:18;12.80;99.90
5848;DHT22;8756;49.29324300;8.70599800;2022-10-26T00:42:44;12.80;99.90
5848;DHT22;8756;49.29324300;8.70599800;2022-10-26T00:45:23;12.90;99.90
5848;DHT22;8756;49.29324300;8.70599800;2022-10-26T00:47:55;12.80;99.90
5848;DHT22;8756;49.29324300;8.70599800;2022-10-26T00:50:38;12.80;99.90
5848;DHT22;8756;49.29324300;8.70599800;2022-10-26T00:53:07;12.80;99.90
5848;DHT22;8756;49.29324300;8.70599800;2022-10-26T00:55:39;12.80;99.90
5848;DHT22;8756;49.29324300;8.70599800;2022-10-26T00:58:07;12.80;99.90
5848;DHT22;8756;49.29324300;8.70599800;2022-10-26T01:00:34;12.90;99.90
5848;DHT22;8756;49.29324300;8.70599800;2022-10-26T01:03:04;12.90;99.90
5848;DHT22;8756;49.29324300;8.70599800;2022-10-26T01:05:32;12.90;99.90
5848;DHT22;8756;49.29324300;8.70599800;2022-10-26T01:07:59;12.90;99.90
5848;DHT22;8756;49.29324300;8.70599800;2022-10-26T01:10:26;12.90;99.90
5848;DHT22;8756;49.29324300;8.70599800;2022-10-26T01:12:54;13.00;99.90
5848;DHT22;8756;49.29324300;8.70599800;2022-10-26T01:15:27;13.00;99.90
5848;DHT22;8756;49.29324300;8.70599800;2022-10-26T01:18:15;13.00;99.90
5848;DHT22;8756;49.29324300;8.70599800;2022-10-26T01:24:54;13.00;99.90
5848;DHT22;8756;49.29324300;8.70599800;2022-10-26T01:33:05;12.90;99.90
5848;DHT22;8756;49.29324300;8.70599800;2022-10-26T01:35:48;12.90;99.90
5848;DHT22;8756;49.29324300;8.70599800;2022-10-26T01:38:30;12.80;99.90
5848;DHT22;8756;49.29324300;8.70599800;2022-10-26T01:41:05;12.80;99.90
5848;DHT22;8756;49.29324300;8.70599800;2022-10-26T01:43:42;12.80;99.90
5848;DHT22;8756;49.29324300;8.70599800;2022-10-26T01:46:12;12.80;99.90
5848;DHT22;8756;49.29324300;8.70599800;2022-10-26T01:48:40;12.80;99.90
5848;DHT22;8756;49.29324300;8.70599800;2022-10-26T01:51:07;12.80;99.90
5848;DHT22;8756;49.29324300;8.70599800;2022-10-26T01:53:34;12.80;99.90
5848;DHT22;8756;49.29324300;8.70599800;2022-10-26T01:56:00;12.80;99.90
5848;DHT22;8756;49.29324300;8.70599800;2022-10-26T01:58:49;12.80;99.90
5848;DHT22;8756;49.29324300;8.70599800;2022-10-26T02:01:33;12.80;99.90
5848;DHT22;8756;49.29324300;8.70599800;2022-10-26T02:09:45;12.80;99.90
5848;DHT22;8756;49.29324300;8.70599800;2022-10-26T02:12:50;12.80;99.90
5848;DHT22;8756;49.29324300;8.70599800;2022-10-26T02:15:22;12.80;99.90
5848;DHT22;8756;49.29324300;8.70599800;2022-10-26T02:18:20;12.80;99.90
5848;DHT22;8756;49.29324300;8.70599800;2022-10-26T02:20:51;12.80;99.90
5848;DHT22;8756;49.29324300;8.70599800;2022-10-26T02:23:19;12.90;99.90
5848;DHT22;8756;49.29324300;8.70599800;2022-10-26T02:25:50;12.90;99.90
5848;DHT22;8756;49.29324300;8.70599800;2022-10-26T02:28:26;12.90;99.90
5848;DHT22;8756;49.29324300;8.70599800;2022-10-26T02:30:57;12.90;99.90
5848;DHT22;8756;49.29324300;8.70599800;2022-10-26T02:33:27;12.90;99.90
5848;DHT22;8756;49.29324300;8.70599800;2022-10-26T02:35:59;12.90;99.90
5848;DHT22;8756;49.29324300;8.70599800;2022-10-26T02:38:28;12.80;99.90
5848;DHT22;8756;49.29324300;8.70599800;2022-10-26T02:40:55;12.80;99.90
5848;DHT22;8756;49.29324300;8.70599800;2022-10-26T02:43:23;12.80;99.90
5848;DHT22;8756;49.29324300;8.70599800;2022-10-26T02:45:56;12.80;99.90
5848;DHT22;8756;49.29324300;8.70599800;2022-10-26T02:48:27;12.80;99.90
5848;DHT22;8756;49.29324300;8.70599800;2022-10-26T02:50:59;12.80;99.90
5848;DHT22;8756;49.29324300;8.70599800;2022-10-26T02:53:31;12.80;99.90
5848;DHT22;8756;49.29324300;8.70599800;2022-10-26T02:56:05;12.80;99.90
5848;DHT22;8756;49.29324300;8.70599800;2022-10-26T02:58:39;12.80;99.90
5848;DHT22;8756;49.29324300;8.70599800;2022-10-26T03:01:08;12.80;99.90
5848;DHT22;8756;49.29324300;8.70599800;2022-10-26T03:03:37;12.80;99.90
5848;DHT22;8756;49.29324300;8.70599800;2022-10-26T03:06:02;12.80;99.90
5848;DHT22;8756;49.29324300;8.70599800;2022-10-26T03:08:28;12.80;99.90
5848;DHT22;8756;49.29324300;8.70599800;2022-10-26T03:10:54;12.80;99.90
5848;DHT22;8756;49.29324300;8.70599800;2022-10-26T03:13:20;12.80;99.90
5848;DHT22;8756;49.29324300;8.70599800;2022-10-26T03:15:45;12.80;99.90
5848;DHT22;8756;49.29324300;8.70599800;2022-10-26T03:18:11;12.80;99.90
5848;DHT22;8756;49.29324300;8.70599800;2022-10-26T03:20:37;12.90;99.90
5848;DHT22;8756;49.29324300;8.70599800;2022-10-26T03:23:02;12.90;99.90
5848;DHT22;8756;49.29324300;8.70599800;2022-10-26T03:25:28;12.90;99.90
5848;DHT22;8756;49.29324300;8.70599800;2022-10-26T03:28:02;12.90;99.90
5848;DHT22;8756;49.29324300;8.70599800;2022-10-26T03:30:29;12.90;99.90
5848;DHT22;8756;49.29324300;8.70599800;2022-10-26T03:32:56;12.80;99.90
5848;DHT22;8756;49.29324300;8.70599800;2022-10-26T03:35:22;12.80;99.90
5848;DHT22;8756;49.29324300;8.70599800;2022-10-26T03:37:48;12.90;99.90
5848;DHT22;8756;49.29324300;8.70599800;2022-10-26T03:40:14;12.90;99.90
5848;DHT22;8756;49.29324300;8.70599800;2022-10-26T03:42:40;12.80;99.90
5848;DHT22;8756;49.29324300;8.70599800;2022-10-26T03:45:06;12.80;99.90
5848;DHT22;8756;49.29324300;8.70599800;2022-10-26T03:47:33;12.90;99.90
5848;DHT22;8756;49.29324300;8.70599800;2022-10-26T03:49:59;12.90;99.90
5848;DHT22;8756;49.29324300;8.70599800;2022-10-26T03:52:25;12.90;99.90
5848;DHT22;8756;49.29324300;8.70599800;2022-10-26T03:54:51;12.90;99.90
5848;DHT22;8756;49.29324300;8.70599800;2022-10-26T03:57:17;12.90;99.90
5848;DHT22;8756;49.29324300;8.70599800;2022-10-26T03:59:43;12.90;99.90
5848;DHT22;8756;49.29324300;8.70599800;2022-10-26T04:02:08;12.90;99.90
5848;DHT22;8756;49.29324300;8.70599800;2022-10-26T04:04:36;12.90;99.90
5848;DHT22;8756;49.29324300;8.70599800;2022-10-26T04:07:02;12.90;99.90
5848;DHT22;8756;49.29324300;8.70599800;2022-10-26T04:09:28;12.90;99.90
5848;DHT22;8756;49.29324300;8.70599800;2022-10-26T04:11:53;12.80;99.90
5848;DHT22;8756;49.29324300;8.70599800;2022-10-26T04:14:19;12.80;99.90
5848;DHT22;8756;49.29324300;8.70599800;2022-10-26T04:16:45;12.80;99.90
5848;DHT22;8756;49.29324300;8.70599800;2022-10-26T04:19:10;12.80;99.90
5848;DHT22;8756;49.29324300;8.70599800;2022-10-26T04:21:36;12.80;99.90
5848;DHT22;8756;49.29324300;8.70599800;2022-10-26T04:24:02;12.80;99.90
5848;DHT22;8756;49.29324300;8.70599800;2022-10-26T04:26:28;12.70;99.90
5848;DHT22;8756;49.29324300;8.70599800;2022-10-26T04:28:53;12.70;99.90
5848;DHT22;8756;49.29324300;8.70599800;2022-10-26T04:31:19;12.80;99.90
5848;DHT22;8756;49.29324300;8.70599800;2022-10-26T04:33:45;12.80;99.90
5848;DHT22;8756;49.29324300;8.70599800;2022-10-26T04:36:10;12.80;99.90
5848;DHT22;8756;49.29324300;8.70599800;2022-10-26T04:38:36;12.70;99.90
5848;DHT22;8756;49.29324300;8.70599800;2022-10-26T04:41:02;12.70;99.90
5848;DHT22;8756;49.29324300;8.70599800;2022-10-26T04:43:27;12.70;99.90
5848;DHT22;8756;49.29324300;8.70599800;2022-10-26T04:45:54;12.80;99.90
5848;DHT22;8756;49.29324300;8.70599800;2022-10-26T04:48:20;12.80;99.90
5848;DHT22;8756;49.29324300;8.70599800;2022-10-26T04:50:46;12.80;99.90
5848;DHT22;8756;49.29324300;8.70599800;2022-10-26T04:53:12;12.80;99.90
5848;DHT22;8756;49.29324300;8.70599800;2022-10-26T04:55:37;12.80;99.90
5848;DHT22;8756;49.29324300;8.70599800;2022-10-26T04:58:04;12.80;99.90
5848;DHT22;8756;49.29324300;8.70599800;2022-10-26T05:00:30;12.80;99.90
5848;DHT22;8756;49.29324300;8.70599800;2022-10-26T05:03:05;12.80;99.90
5848;DHT22;8756;49.29324300;8.70599800;2022-10-26T05:05:33;12.80;99.90
5848;DHT22;8756;49.29324300;8.70599800;2022-10-26T05:08:00;12.80;99.90
5848;DHT22;8756;49.29324300;8.70599800;2022-10-26T05:10:26;12.80;99.90
5848;DHT22;8756;49.29324300;8.70599800;2022-10-26T05:12:57;12.90;99.90
5848;DHT22;8756;49.29324300;8.70599800;2022-10-26T05:15:25;12.90;99.90
5848;DHT22;8756;49.29324300;8.70599800;2022-10-26T05:17:58;12.90;99.90
5848;DHT22;8756;49.29324300;8.70599800;2022-10-26T05:20:26;12.90;99.90
5848;DHT22;8756;49.29324300;8.70599800;2022-10-26T05:23:03;12.90;99.90
5848;DHT22;8756;49.29324300;8.70599800;2022-10-26T05:25:33;13.00;99.90
5848;DHT22;8756;49.29324300;8.70599800;2022-10-26T05:28:01;13.00;99.90
5848;DHT22;8756;49.29324300;8.70599800;2022-10-26T05:30:32;13.00;99.90
5848;DHT22;8756;49.29324300;8.70599800;2022-10-26T05:33:00;13.00;99.90
5848;DHT22;8756;49.29324300;8.70599800;2022-10-26T05:35:29;13.00;99.90
5848;DHT22;8756;49.29324300;8.70599800;2022-10-26T05:37:56;13.00;99.90
5848;DHT22;8756;49.29324300;8.70599800;2022-10-26T05:40:22;13.00;99.90
5848;DHT22;8756;49.29324300;8.70599800;2022-10-26T05:42:48;13.00;99.90
5848;DHT22;8756;49.29324300;8.70599800;2022-10-26T05:45:17;13.00;99.90
5848;DHT22;8756;49.29324300;8.70599800;2022-10-26T05:47:44;12.90;99.90
5848;DHT22;8756;49.29324300;8.70599800;2022-10-26T05:50:11;13.00;99.90
5848;DHT22;8756;49.29324300;8.70599800;2022-10-26T05:52:44;13.00;99.90
5848;DHT22;8756;49.29324300;8.70599800;2022-10-26T05:55:13;13.00;99.90
5848;DHT22;8756;49.29324300;8.70599800;2022-10-26T05:57:41;13.00;99.90
5848;DHT22;8756;49.29324300;8.70599800;2022-10-26T06:00:15;13.00;99.90
5848;DHT22;8756;49.29324300;8.70599800;2022-10-26T06:05:40;13.00;99.90
5848;DHT22;8756;49.29324300;8.70599800;2022-10-26T06:08:17;13.00;99.90
5848;DHT22;8756;49.29324300;8.70599800;2022-10-26T06:10:43;12.90;99.90
5848;DHT22;8756;49.29324300;8.70599800;2022-10-26T06:13:09;12.90;99.90
5848;DHT22;8756;49.29324300;8.70599800;2022-10-26T06:16:29;12.90;99.90
5848;DHT22;8756;49.29324300;8.70599800;2022-10-26T06:27:41;12.90;99.90
5848;DHT22;8756;49.29324300;8.70599800;2022-10-26T06:30:28;12.90;99.90
5848;DHT22;8756;49.29324300;8.70599800;2022-10-26T06:32:54;12.90;99.90
5848;DHT22;8756;49.29324300;8.70599800;2022-10-26T06:37:53;13.00;99.90
5848;DHT22;8756;49.29324300;8.70599800;2022-10-26T06:40:20;13.00;99.90
5848;DHT22;8756;49.29324300;8.70599800;2022-10-26T06:42:47;13.00;99.90
5848;DHT22;8756;49.29324300;8.70599800;2022-10-26T06:45:14;13.00;99.90
5848;DHT22;8756;49.29324300;8.70599800;2022-10-26T06:47:59;13.10;99.90
5848;DHT22;8756;49.29324300;8.70599800;2022-10-26T06:50:35;13.10;99.90
5848;DHT22;8756;49.29324300;8.70599800;2022-10-26T06:53:34;13.10;99.90
5848;DHT22;8756;49.29324300;8.70599800;2022-10-26T06:56:09;13.10;99.90
5848;DHT22;8756;49.29324300;8.70599800;2022-10-26T06:58:36;13.10;99.90
5848;DHT22;8756;49.29324300;8.70599800;2022-10-26T07:01:04;13.10;99.90
5848;DHT22;8756;49.29324300;8.70599800;2022-10-26T07:03:30;13.10;99.90
5848;DHT22;8756;49.29324300;8.70599800;2022-10-26T07:05:55;13.10;99.90
5848;DHT22;8756;49.29324300;8.70599800;2022-10-26T07:08:21;13.10;99.90
5848;DHT22;8756;49.29324300;8.70599800;2022-10-26T07:10:47;13.10;99.90
5848;DHT22;8756;49.29324300;8.70599800;2022-10-26T07:13:13;13.10;99.90
5848;DHT22;8756;49.29324300;8.70599800;2022-10-26T07:15:39;13.10;99.90
5848;DHT22;8756;49.29324300;8.70599800;2022-10-26T07:18:08;13.10;99.90
5848;DHT22;8756;49.29324300;8.70599800;2022-10-26T07:20:39;13.10;99.90
5848;DHT22;8756;49.29324300;8.70599800;2022-10-26T07:23:06;13.10;99.90
5848;DHT22;8756;49.29324300;8.70599800;2022-10-26T07:25:35;13.10;99.90
5848;DHT22;8756;49.29324300;8.70599800;2022-10-26T07:28:06;13.10;99.90
5848;DHT22;8756;49.29324300;8.70599800;2022-10-26T07:30:35;13.10;99.90
5848;DHT22;8756;49.29324300;8.70599800;2022-10-26T07:33:10;13.10;99.90
5848;DHT22;8756;49.29324300;8.70599800;2022-10-26T07:35:38;13.20;99.90
5848;DHT22;8756;49.29324300;8.70599800;2022-10-26T07:38:04;13.20;99.90
5848;DHT22;8756;49.29324300;8.70599800;2022-10-26T07:40:30;13.20;99.90
5848;DHT22;8756;49.29324300;8.70599800;2022-10-26T07:42:57;13.20;99.90
5848;DHT22;8756;49.29324300;8.70599800;2022-10-26T07:45:28;13.30;99.90
5848;DHT22;8756;49.29324300;8.70599800;2022-10-26T07:47:55;13.30;99.90
5848;DHT22;8756;49.29324300;8.70599800;2022-10-26T07:50:21;13.30;99.90
5848;DHT22;8756;49.29324300;8.70599800;2022-10-26T07:52:47;13.30;99.90
5848;DHT22;8756;49.29324300;8.70599800;2022-10-26T07:55:13;13.30;99.90
5848;DHT22;8756;49.29324300;8.70599800;2022-10-26T07:57:39;13.40;99.90
5848;DHT22;8756;49.29324300;8.70599800;2022-10-26T08:00:07;13.40;99.90
5848;DHT22;8756;49.29324300;8.70599800;2022-10-26T08:02:34;13.40;99.90
5848;DHT22;8756;49.29324300;8.70599800;2022-10-26T08:05:00;13.30;99.90
5848;DHT22;8756;49.29324300;8.70599800;2022-10-26T08:07:26;13.30;99.90
5848;DHT22;8756;49.29324300;8.70599800;2022-10-26T08:09:52;13.20;99.90
5848;DHT22;8756;49.29324300;8.70599800;2022-10-26T08:12:19;13.20;99.90
5848;DHT22;8756;49.29324300;8.70599800;2022-10-26T08:14:45;13.20;99.90
5848;DHT22;8756;49.29324300;8.70599800;2022-10-26T08:17:10;13.20;99.90
5848;DHT22;8756;49.29324300;8.70599800;2022-10-26T08:19:36;13.20;99.90
5848;DHT22;8756;49.29324300;8.70599800;2022-10-26T08:22:02;13.20;99.90
5848;DHT22;8756;49.29324300;8.70599800;2022-10-26T08:24:28;13.20;99.90
5848;DHT22;8756;49.29324300;8.70599800;2022-10-26T08:26:54;13.20;99.90
5848;DHT22;8756;49.29324300;8.70599800;2022-10-26T08:29:20;13.20;99.90
5848;DHT22;8756;49.29324300;8.70599800;2022-10-26T08:31:51;13.20;99.90
5848;DHT22;8756;49.29324300;8.70599800;2022-10-26T08:34:17;13.20;99.90
5848;DHT22;8756;49.29324300;8.70599800;2022-10-26T08:36:42;13.20;99.90
5848;DHT22;8756;49.29324300;8.70599800;2022-10-26T08:39:08;13.30;99.90
5848;DHT22;8756;49.29324300;8.70599800;2022-10-26T08:41:39;13.30;99.90
5848;DHT22;8756;49.29324300;8.70599800;2022-10-26T08:44:44;13.30;99.90
5848;DHT22;8756;49.29324300;8.70599800;2022-10-26T08:47:24;13.40;99.90
5848;DHT22;8756;49.29324300;8.70599800;2022-10-26T08:50:09;13.40;99.90
5848;DHT22;8756;49.29324300;8.70599800;2022-10-26T08:52:46;13.50;99.90
5848;DHT22;8756;49.29324300;8.70599800;2022-10-26T08:55:18;13.50;99.90
5848;DHT22;8756;49.29324300;8.70599800;2022-10-26T08:57:46;13.50;99.90
5848;DHT22;8756;49.29324300;8.70599800;2022-10-26T09:00:19;13.50;99.90
5848;DHT22;8756;49.29324300;8.70599800;2022-10-26T09:02:50;13.50;99.90
5848;DHT22;8756;49.29324300;8.70599800;2022-10-26T09:05:21;13.60;99.90
5848;DHT22;8756;49.29324300;8.70599800;2022-10-26T09:08:13;13.60;99.90
5848;DHT22;8756;49.29324300;8.70599800;2022-10-26T09:10:58;13.60;99.90
5848;DHT22;8756;49.29324300;8.70599800;2022-10-26T09:16:44;13.80;99.90
5848;DHT22;8756;49.29324300;8.70599800;2022-10-26T09:20:11;13.90;99.90
5848;DHT22;8756;49.29324300;8.70599800;2022-10-26T09:29:25;14.40;99.90
5848;DHT22;8756;49.29324300;8.70599800;2022-10-26T09:31:53;14.50;99.90
5848;DHT22;8756;49.29324300;8.70599800;2022-10-26T09:34:44;14.50;99.90
5848;DHT22;8756;49.29324300;8.70599800;2022-10-26T09:37:22;14.60;99.90
5848;DHT22;8756;49.29324300;8.70599800;2022-10-26T09:42:52;14.80;99.90
5848;DHT22;8756;49.29324300;8.70599800;2022-10-26T09:45:32;14.90;99.90
5848;DHT22;8756;49.29324300;8.70599800;2022-10-26T09:48:21;14.90;99.90
5848;DHT22;8756;49.29324300;8.70599800;2022-10-26T09:50:52;15.00;99.90
5848;DHT22;8756;49.29324300;8.70599800;2022-10-26T09:53:18;15.10;99.90
5848;DHT22;8756;49.29324300;8.70599800;2022-10-26T09:55:46;15.20;99.90
5848;DHT22;8756;49.29324300;8.70599800;2022-10-26T09:58:24;15.20;99.90
5848;DHT22;8756;49.29324300;8.70599800;2022-10-26T10:00:53;15.30;99.90
5848;DHT22;8756;49.29324300;8.70599800;2022-10-26T10:03:23;15.40;99.90
5848;DHT22;8756;49.29324300;8.70599800;2022-10-26T10:05:51;15.40;99.90
5848;DHT22;8756;49.29324300;8.70599800;2022-10-26T10:08:22;15.50;99.90
5848;DHT22;8756;49.29324300;8.70599800;2022-10-26T10:13:51;15.60;99.90
5848;DHT22;8756;49.29324300;8.70599800;2022-10-26T10:16:23;15.70;99.90
5848;DHT22;8756;49.29324300;8.70599800;2022-10-26T10:18:54;15.80;99.90
5848;DHT22;8756;49.29324300;8.70599800;2022-10-26T10:21:37;15.90;99.90
5848;DHT22;8756;49.29324300;8.70599800;2022-10-26T10:24:29;15.90;99.90
5848;DHT22;8756;49.29324300;8.70599800;2022-10-26T10:27:24;16.00;99.90
5848;DHT22;8756;49.29324300;8.70599800;2022-10-26T10:29:55;16.10;99.90
5848;DHT22;8756;49.29324300;8.70599800;2022-10-26T10:32:27;16.10;99.90
5848;DHT22;8756;49.29324300;8.70599800;2022-10-26T10:34:57;16.20;99.90
5848;DHT22;8756;49.29324300;8.70599800;2022-10-26T10:40:18;16.40;99.90
5848;DHT22;8756;49.29324300;8.70599800;2022-10-26T10:42:46;16.40;99.90
5848;DHT22;8756;49.29324300;8.70599800;2022-10-26T10:45:20;16.50;99.90
5848;DHT22;8756;49.29324300;8.70599800;2022-10-26T10:51:05;16.70;99.90
5848;DHT22;8756;49.29324300;8.70599800;2022-10-26T10:53:55;16.80;99.90
5848;DHT22;8756;49.29324300;8.70599800;2022-10-26T11:05:59;17.20;99.90
5848;DHT22;8756;49.29324300;8.70599800;2022-10-26T11:08:31;17.30;99.90
5848;DHT22;8756;49.29324300;8.70599800;2022-10-26T11:11:08;17.40;99.90
5848;DHT22;8756;49.29324300;8.70599800;2022-10-26T11:16:38;17.50;99.90
5848;DHT22;8756;49.29324300;8.70599800;2022-10-26T11:21:54;17.60;99.90
5848;DHT22;8756;49.29324300;8.70599800;2022-10-26T11:24:30;17.60;99.90
5848;DHT22;8756;49.29324300;8.70599800;2022-10-26T11:27:13;17.60;99.90
5848;DHT22;8756;49.29324300;8.70599800;2022-10-26T11:29:48;17.60;99.90
5848;DHT22;8756;49.29324300;8.70599800;2022-10-26T11:32:21;17.70;99.90
5848;DHT22;8756;49.29324300;8.70599800;2022-10-26T11:35:34;17.70;99.90
5848;DHT22;8756;49.29324300;8.70599800;2022-10-26T11:37:55;17.70;99.90
5848;DHT22;8756;49.29324300;8.70599800;2022-10-26T11:43:32;17.60;99.90
5848;DHT22;8756;49.29324300;8.70599800;2022-10-26T11:46:26;17.60;99.90
5848;DHT22;8756;49.29324300;8.70599800;2022-10-26T11:51:43;17.60;99.90
5848;DHT22;8756;49.29324300;8.70599800;2022-10-26T11:54:18;17.60;99.90
5848;DHT22;8756;49.29324300;8.70599800;2022-10-26T11:56:51;17.60;99.90
5848;DHT22;8756;49.29324300;8.70599800;2022-10-26T11:59:20;17.60;99.90
5848;DHT22;8756;49.29324300;8.70599800;2022-10-26T12:01:53;17.70;99.90
5848;DHT22;8756;49.29324300;8.70599800;2022-10-26T12:04:24;17.60;99.90
5848;DHT22;8756;49.29324300;8.70599800;2022-10-26T12:06:55;17.60;99.90
5848;DHT22;8756;49.29324300;8.70599800;2022-10-26T12:09:29;17.70;99.90
5848;DHT22;8756;49.29324300;8.70599800;2022-10-26T12:18:17;17.70;99.90
5848;DHT22;8756;49.29324300;8.70599800;2022-10-26T12:20:56;17.80;99.90
5848;DHT22;8756;49.29324300;8.70599800;2022-10-26T12:23:36;17.80;99.90
5848;DHT22;8756;49.29324300;8.70599800;2022-10-26T12:28:48;17.80;99.90
5848;DHT22;8756;49.29324300;8.70599800;2022-10-26T12:39:29;17.90;99.90
5848;DHT22;8756;49.29324300;8.70599800;2022-10-26T12:58:05;18.00;99.90
5848;DHT22;8756;49.29324300;8.70599800;2022-10-26T13:01:17;18.00;99.90
5848;DHT22;8756;49.29324300;8.70599800;2022-10-26T13:07:24;18.10;99.90
5848;DHT22;8756;49.29324300;8.70599800;2022-10-26T13:10:25;18.20;99.90
5848;DHT22;8756;49.29324300;8.70599800;2022-10-26T13:12:53;18.20;99.90
5848;DHT22;8756;49.29324300;8.70599800;2022-10-26T13:15:28;18.20;99.90
5848;DHT22;8756;49.29324300;8.70599800;2022-10-26T13:18:12;18.20;99.90
5848;DHT22;8756;49.29324300;8.70599800;2022-10-26T13:23:28;18.20;99.90
5848;DHT22;8756;49.29324300;8.70599800;2022-10-26T13:26:17;18.20;99.90
5848;DHT22;8756;49.29324300;8.70599800;2022-10-26T13:34:09;18.30;99.90
5848;DHT22;8756;49.29324300;8.70599800;2022-10-26T13:36:42;18.40;99.90
5848;DHT22;8756;49.29324300;8.70599800;2022-10-26T13:39:17;18.40;99.90
5848;DHT22;8756;49.29324300;8.70599800;2022-10-26T13:42:17;18.50;99.90
5848;DHT22;8756;49.29324300;8.70599800;2022-10-26T13:44:58;18.50;99.90
5848;DHT22;8756;49.29324300;8.70599800;2022-10-26T13:47:44;18.60;99.90
5848;DHT22;8756;49.29324300;8.70599800;2022-10-26T13:50:15;18.60;99.90
5848;DHT22;8756;49.29324300;8.70599800;2022-10-26T13:52:50;18.60;99.90
5848;DHT22;8756;49.29324300;8.70599800;2022-10-26T13:55:27;18.60;99.90
5848;DHT22;8756;49.29324300;8.70599800;2022-10-26T14:03:34;18.60;99.90
5848;DHT22;8756;49.29324300;8.70599800;2022-10-26T14:06:10;18.60;99.90
5848;DHT22;8756;49.29324300;8.70599800;2022-10-26T14:08:41;18.60;99.90
5848;DHT22;8756;49.29324300;8.70599800;2022-10-26T14:11:12;18.70;99.90
5848;DHT22;8756;49.29324300;8.70599800;2022-10-26T14:13:40;18.70;99.90
5848;DHT22;8756;49.29324300;8.70599800;2022-10-26T14:16:09;18.70;99.90
5848;DHT22;8756;49.29324300;8.70599800;2022-10-26T14:18:38;18.80;99.90
5848;DHT22;8756;49.29324300;8.70599800;2022-10-26T14:21:10;18.90;99.90
5848;DHT22;8756;49.29324300;8.70599800;2022-10-26T14:23:50;18.80;99.90
5848;DHT22;8756;49.29324300;8.70599800;2022-10-26T14:26:28;18.80;99.90
5848;DHT22;8756;49.29324300;8.70599800;2022-10-26T14:28:59;18.80;99.90
5848;DHT22;8756;49.29324300;8.70599800;2022-10-26T14:31:30;18.80;99.90
5848;DHT22;8756;49.29324300;8.70599800;2022-10-26T14:33:59;18.80;99.90
5848;DHT22;8756;49.29324300;8.70599800;2022-10-26T14:36:30;18.70;99.90
5848;DHT22;8756;49.29324300;8.70599800;2022-10-26T14:39:17;18.70;99.90
5848;DHT22;8756;49.29324300;8.70599800;2022-10-26T14:41:45;18.70;99.90
5848;DHT22;8756;49.29324300;8.70599800;2022-10-26T14:44:16;18.70;99.90
5848;DHT22;8756;49.29324300;8.70599800;2022-10-26T14:46:44;18.70;99.90
5848;DHT22;8756;49.29324300;8.70599800;2022-10-26T14:49:22;18.70;99.90
5848;DHT22;8756;49.29324300;8.70599800;2022-10-26T14:51:58;18.60;99.90
5848;DHT22;8756;49.29324300;8.70599800;2022-10-26T14:54:29;18.60;99.90
5848;DHT22;8756;49.29324300;8.70599800;2022-10-26T14:56:56;18.70;99.90
5848;DHT22;8756;49.29324300;8.70599800;2022-10-26T14:59:27;18.60;99.90
5848;DHT22;8756;49.29324300;8.70599800;2022-10-26T15:05:20;18.50;99.90
5848;DHT22;8756;49.29324300;8.70599800;2022-10-26T15:07:54;18.50;99.90
5848;DHT22;8756;49.29324300;8.70599800;2022-10-26T15:15:52;18.40;99.90
5848;DHT22;8756;49.29324300;8.70599800;2022-10-26T15:18:26;18.40;99.90
5848;DHT22;8756;49.29324300;8.70599800;2022-10-26T15:20:54;18.40;99.90
5848;DHT22;8756;49.29324300;8.70599800;2022-10-26T15:23:21;18.30;99.90
5848;DHT22;8756;49.29324300;8.70599800;2022-10-26T15:25:55;18.30;99.90
5848;DHT22;8756;49.29324300;8.70599800;2022-10-26T15:31:04;18.20;99.90
5848;DHT22;8756;49.29324300;8.70599800;2022-10-26T15:33:42;18.20;99.90
5848;DHT22;8756;49.29324300;8.70599800;2022-10-26T15:36:21;18.20;99.90
5848;DHT22;8756;49.29324300;8.70599800;2022-10-26T15:38:48;18.20;99.90
5848;DHT22;8756;49.29324300;8.70599800;2022-10-26T15:41:37;18.20;99.90
5848;DHT22;8756;49.29324300;8.70599800;2022-10-26T15:44:13;18.20;99.90
5848;DHT22;8756;49.29324300;8.70599800;2022-10-26T15:46:41;18.10;99.90
5848;DHT22;8756;49.29324300;8.70599800;2022-10-26T15:49:17;18.10;99.90
5848;DHT22;8756;49.29324300;8.70599800;2022-10-26T15:51:45;18.00;99.90
5848;DHT22;8756;49.29324300;8.70599800;2022-10-26T15:54:12;18.10;99.90
5848;DHT22;8756;49.29324300;8.70599800;2022-10-26T15:56:39;18.00;99.90
5848;DHT22;8756;49.29324300;8.70599800;2022-10-26T15:59:16;17.90;99.90
5848;DHT22;8756;49.29324300;8.70599800;2022-10-26T16:01:43;17.90;99.90
5848;DHT22;8756;49.29324300;8.70599800;2022-10-26T16:04:09;17.90;99.90
5848;DHT22;8756;49.29324300;8.70599800;2022-10-26T16:06:37;17.80;99.90
5848;DHT22;8756;49.29324300;8.70599800;2022-10-26T16:09:06;17.80;99.90
5848;DHT22;8756;49.29324300;8.70599800;2022-10-26T16:11:37;17.70;99.90
5848;DHT22;8756;49.29324300;8.70599800;2022-10-26T16:14:03;17.70;99.90
5848;DHT22;8756;49.29324300;8.70599800;2022-10-26T16:16:29;17.70;99.90
5848;DHT22;8756;49.29324300;8.70599800;2022-10-26T16:18:56;17.60;99.90
5848;DHT22;8756;49.29324300;8.70599800;2022-10-26T16:21:23;17.60;99.90
5848;DHT22;8756;49.29324300;8.70599800;2022-10-26T16:23:51;17.60;99.90
5848;DHT22;8756;49.29324300;8.70599800;2022-10-26T16:26:19;17.60;99.90
5848;DHT22;8756;49.29324300;8.70599800;2022-10-26T16:28:45;17.50;99.90